Time;durP1;ratioP1;P1;durP2;ratioP2;P2;SDS_P1;SDS_P2;PMS_P1;PMS_P2;Temp;Humidity;BMP_temperature;BMP_pressure;BME280_temperature;BME280_humidity;BME280_pressure;Samples;Min_cycle;Max_cycle;Signal;HPM_P1;HPM_P2
2022/08/20 00:00:07;;;;;;;9.53;5.00;;;;;;;;;;5047356;28;20226;-77
2022/08/20 00:02:39;;;;;;;7.97;4.67;;;;;;;;;;5049348;28;20291;-79
2022/08/20 00:05:06;;;;;;;8.00;4.97;;;;;;;;;;5047977;28;20238;-77
2022/08/20 00:07:34;;;;;;;6.77;4.50;;;;;;;;;;5048207;28;20286;-76
2022/08/20 00:10:01;;;;;;;6.10;4.37;;;;;;;;;;5046389;28;20293;-77
2022/08/20 00:12:28;;;;;;;8.63;4.37;;;;;;;;;;5045479;28;20203;-77
2022/08/20 00:14:56;;;;;;;9.23;4.20;;;;;;;;;;5045413;28;20230;-78
2022/08/20 00:17:24;;;;;;;7.00;3.73;;;;;;;;;;5050835;28;20294;-78
2022/08/20 00:19:51;;;;;;;9.67;4.47;;;;;;;;;;5045259;28;20223;-78
2022/08/20 00:22:18;;;;;;;7.03;3.70;;;;;;;;;;5048399;28;20282;-76
2022/08/20 00:24:45;;;;;;;6.03;3.90;;;;;;;;;;5050183;28;20259;-77
2022/08/20 00:27:12;;;;;;;7.47;3.83;;;;;;;;;;5050250;28;20282;-77
2022/08/20 00:29:40;;;;;;;6.63;3.97;;;;;;;;;;5051999;28;20222;-78
2022/08/20 00:32:08;;;;;;;7.93;3.93;;;;;;;;;;5049365;28;20235;-78
2022/08/20 00:34:35;;;;;;;6.40;3.60;;;;;;;;;;5046637;28;20242;-78
2022/08/20 00:37:02;;;;;;;6.57;4.23;;;;;;;;;;5047372;28;20584;-76
2022/08/20 00:39:30;;;;;;;6.60;3.87;;;;;;;;;;5044293;28;20226;-78
2022/08/20 00:41:58;;;;;;;8.17;3.83;;;;;;;;;;5041705;28;20222;-78
2022/08/20 00:44:25;;;;;;;5.53;3.73;;;;;;;;;;5043735;28;20281;-75
2022/08/20 00:46:53;;;;;;;7.73;4.00;;;;;;;;;;5045984;28;20199;-77
2022/08/20 00:49:24;;;;;;;7.13;4.00;;;;;;;;;;5047759;28;20302;-77
2022/08/20 00:51:53;;;;;;;5.80;3.60;;;;;;;;;;5045418;28;20713;-77
2022/08/20 00:54:24;;;;;;;9.47;3.83;;;;;;;;;;5044679;28;20258;-78
2022/08/20 00:56:56;;;;;;;6.83;3.80;;;;;;;;;;5048816;28;20755;-77
2022/08/20 00:59:24;;;;;;;7.83;4.17;;;;;;;;;;5044210;28;20219;-77
2022/08/20 01:01:52;;;;;;;7.30;4.57;;;;;;;;;;5043775;28;20223;-78
2022/08/20 01:04:19;;;;;;;6.93;4.73;;;;;;;;;;5049178;28;20211;-78
2022/08/20 01:06:48;;;;;;;8.57;4.57;;;;;;;;;;5047200;28;20293;-79
2022/08/20 01:09:15;;;;;;;8.97;5.37;;;;;;;;;;5049093;28;20203;-77
2022/08/20 01:11:42;;;;;;;9.80;5.53;;;;;;;;;;5047406;28;20250;-78
2022/08/20 01:14:22;;;;;;;14.83;5.93;;;;;;;;;;5048788;28;20298;-79
2022/08/20 01:16:50;;;;;;;8.23;5.33;;;;;;;;;;5047714;28;20217;-79
2022/08/20 01:19:21;;;;;;;13.00;6.37;;;;;;;;;;5045354;28;20296;-78
2022/08/20 01:21:50;;;;;;;7.30;5.90;;;;;;;;;;5046289;28;20233;-80
2022/08/20 01:24:20;;;;;;;12.93;7.00;;;;;;;;;;5048537;28;20291;-78
2022/08/20 01:26:49;;;;;;;10.73;6.37;;;;;;;;;;5044756;28;20195;-79
2022/08/20 01:29:19;;;;;;;11.50;7.03;;;;;;;;;;5049769;28;20258;-79
2022/08/20 01:31:47;;;;;;;11.70;7.63;;;;;;;;;;5044733;28;20253;-79
2022/08/20 01:34:15;;;;;;;10.83;8.27;;;;;;;;;;5048104;28;20271;-79
2022/08/20 01:36:44;;;;;;;11.87;8.23;;;;;;;;;;5044557;28;20330;-78
2022/08/20 01:39:13;;;;;;;14.97;8.40;;;;;;;;;;5043173;28;20322;-79
2022/08/20 01:41:45;;;;;;;11.40;8.47;;;;;;;;;;5049483;28;20341;-78
2022/08/20 01:44:13;;;;;;;11.57;8.03;;;;;;;;;;5048386;28;20205;-79
2022/08/20 01:46:42;;;;;;;11.53;8.30;;;;;;;;;;5047641;28;20275;-78
2022/08/20 01:49:10;;;;;;;10.93;7.93;;;;;;;;;;5048150;28;20233;-78
2022/08/20 01:51:38;;;;;;;11.03;8.27;;;;;;;;;;5045794;28;20283;-78
2022/08/20 01:54:05;;;;;;;10.90;8.23;;;;;;;;;;5045203;28;20669;-80
2022/08/20 01:56:33;;;;;;;11.73;8.10;;;;;;;;;;5047785;28;20226;-80
2022/08/20 01:59:01;;;;;;;11.33;7.93;;;;;;;;;;5049035;28;20208;-80
2022/08/20 02:01:32;;;;;;;13.90;8.00;;;;;;;;;;5051082;28;20653;-81
2022/08/20 02:04:00;;;;;;;14.47;8.57;;;;;;;;;;5043294;28;20207;-79
2022/08/20 02:06:29;;;;;;;11.00;8.27;;;;;;;;;;5048301;28;20230;-79
2022/08/20 02:08:57;;;;;;;11.27;8.33;;;;;;;;;;5046859;28;20207;-79
2022/08/20 02:11:24;;;;;;;14.50;8.93;;;;;;;;;;5051527;28;20238;-80
2022/08/20 02:13:52;;;;;;;12.77;9.17;;;;;;;;;;5044883;28;20239;-81
2022/08/20 02:16:20;;;;;;;11.70;8.57;;;;;;;;;;5044947;28;20207;-80
2022/08/20 02:18:53;;;;;;;12.67;8.93;;;;;;;;;;5041657;28;20250;-80
2022/08/20 02:21:21;;;;;;;13.77;9.30;;;;;;;;;;5043627;28;20779;-80
2022/08/20 02:23:48;;;;;;;13.57;9.13;;;;;;;;;;5047642;28;20199;-80
2022/08/20 02:26:17;;;;;;;14.40;9.53;;;;;;;;;;5041096;28;20218;-81
2022/08/20 02:28:48;;;;;;;14.63;9.07;;;;;;;;;;5046244;28;20231;-80
2022/08/20 02:31:16;;;;;;;15.60;10.30;;;;;;;;;;5045988;28;20227;-81
2022/08/20 02:33:43;;;;;;;16.03;10.20;;;;;;;;;;5044740;28;20242;-81
2022/08/20 02:36:12;;;;;;;16.67;10.77;;;;;;;;;;5045045;28;20199;-80
2022/08/20 02:38:40;;;;;;;16.40;9.70;;;;;;;;;;5043771;28;20766;-81
2022/08/20 02:41:07;;;;;;;13.43;10.00;;;;;;;;;;5046436;28;20262;-80
2022/08/20 02:43:35;;;;;;;11.63;8.83;;;;;;;;;;5045918;28;20207;-80
2022/08/20 02:46:02;;;;;;;14.00;9.43;;;;;;;;;;5050538;28;20297;-82
2022/08/20 02:48:30;;;;;;;15.20;9.43;;;;;;;;;;5050789;28;20293;-81
2022/08/20 02:50:59;;;;;;;12.87;10.03;;;;;;;;;;5044322;28;20219;-79
2022/08/20 02:53:28;;;;;;;11.53;8.97;;;;;;;;;;5045697;28;20230;-80
2022/08/20 02:55:55;;;;;;;9.97;8.30;;;;;;;;;;5042545;28;20654;-80
2022/08/20 02:58:23;;;;;;;12.80;8.47;;;;;;;;;;5044746;28;20233;-80
2022/08/20 03:00:50;;;;;;;11.53;9.00;;;;;;;;;;5048002;28;20229;-79
2022/08/20 03:03:21;;;;;;;10.80;8.27;;;;;;;;;;5045355;28;20214;-80
2022/08/20 03:05:49;;;;;;;12.10;8.93;;;;;;;;;;5048182;28;20596;-79
2022/08/20 03:08:17;;;;;;;15.00;8.83;;;;;;;;;;5043290;28;20268;-81
2022/08/20 03:10:46;;;;;;;10.23;8.80;;;;;;;;;;5047005;28;20297;-81
2022/08/20 03:13:14;;;;;;;13.60;8.50;;;;;;;;;;5041891;28;20685;-80
2022/08/20 03:15:42;;;;;;;9.53;7.93;;;;;;;;;;5041323;28;20568;-79
2022/08/20 03:18:09;;;;;;;11.57;8.40;;;;;;;;;;5043108;28;20204;-80
2022/08/20 03:20:36;;;;;;;12.10;7.60;;;;;;;;;;5042597;28;20345;-81
2022/08/20 03:23:03;;;;;;;12.10;8.93;;;;;;;;;;5048888;28;20603;-80
2022/08/20 03:25:32;;;;;;;10.23;8.40;;;;;;;;;;5042417;28;20287;-81
2022/08/20 03:28:00;;;;;;;12.70;8.90;;;;;;;;;;5045551;28;20204;-80
2022/08/20 03:30:29;;;;;;;11.77;9.20;;;;;;;;;;5045471;28;20701;-80
2022/08/20 03:32:56;;;;;;;12.17;8.20;;;;;;;;;;5041616;28;20286;-79
2022/08/20 03:35:25;;;;;;;10.40;8.57;;;;;;;;;;5049728;28;20226;-81
2022/08/20 03:37:52;;;;;;;11.43;8.67;;;;;;;;;;5051073;28;20294;-80
2022/08/20 03:40:21;;;;;;;10.57;8.60;;;;;;;;;;5052628;28;20234;-82
2022/08/20 03:42:48;;;;;;;10.17;8.03;;;;;;;;;;5048280;28;20262;-81
2022/08/20 03:45:17;;;;;;;9.83;7.83;;;;;;;;;;5045259;28;20649;-82
2022/08/20 03:47:44;;;;;;;12.53;8.23;;;;;;;;;;5049622;28;20249;-79
2022/08/20 03:50:12;;;;;;;11.97;8.33;;;;;;;;;;5050725;28;20240;-81
2022/08/20 03:52:40;;;;;;;12.53;9.67;;;;;;;;;;5050563;28;20541;-81
2022/08/20 03:55:08;;;;;;;12.17;8.80;;;;;;;;;;5049782;28;20286;-81
2022/08/20 03:57:36;;;;;;;9.57;8.37;;;;;;;;;;5051333;28;20290;-80
2022/08/20 04:00:05;;;;;;;10.37;7.80;;;;;;;;;;5048648;28;20697;-81
2022/08/20 04:02:33;;;;;;;11.97;8.00;;;;;;;;;;5050857;28;20218;-81
2022/08/20 04:05:00;;;;;;;12.20;8.57;;;;;;;;;;5045984;28;20718;-80
2022/08/20 04:07:27;;;;;;;10.93;8.40;;;;;;;;;;5052471;28;20237;-81
2022/08/20 04:09:56;;;;;;;11.10;8.27;;;;;;;;;;5049567;28;20654;-80
2022/08/20 04:12:24;;;;;;;10.20;8.00;;;;;;;;;;5050405;28;20272;-81
2022/08/20 04:14:51;;;;;;;11.13;7.47;;;;;;;;;;5047262;28;20269;-80
2022/08/20 04:17:19;;;;;;;10.23;8.30;;;;;;;;;;5050151;28;20227;-81
2022/08/20 04:19:48;;;;;;;10.67;7.80;;;;;;;;;;5050772;28;20226;-80
2022/08/20 04:22:15;;;;;;;9.53;8.27;;;;;;;;;;5048212;28;20210;-80
2022/08/20 04:24:43;;;;;;;11.27;9.07;;;;;;;;;;5046973;28;20204;-79
2022/08/20 04:27:10;;;;;;;13.30;9.73;;;;;;;;;;5048609;28;20280;-79
2022/08/20 04:29:41;;;;;;;10.73;9.13;;;;;;;;;;5049037;28;20672;-79
2022/08/20 04:32:09;;;;;;;13.87;9.23;;;;;;;;;;5047998;28;20223;-81
2022/08/20 04:34:36;;;;;;;11.97;9.33;;;;;;;;;;5050623;28;20202;-80
2022/08/20 04:37:05;;;;;;;16.17;9.97;;;;;;;;;;5047703;28;20662;-80
2022/08/20 04:39:33;;;;;;;14.20;11.00;;;;;;;;;;5051458;28;20210;-80
2022/08/20 04:42:00;;;;;;;13.00;10.30;;;;;;;;;;5050837;28;20290;-79
2022/08/20 04:44:27;;;;;;;13.03;9.80;;;;;;;;;;5050808;28;20227;-79
2022/08/20 04:46:54;;;;;;;16.17;10.83;;;;;;;;;;5045839;28;20665;-78
2022/08/20 04:49:23;;;;;;;13.30;10.43;;;;;;;;;;5050190;28;20760;-78
2022/08/20 04:51:51;;;;;;;14.10;10.60;;;;;;;;;;5047773;28;20215;-79
2022/08/20 04:54:19;;;;;;;14.77;10.47;;;;;;;;;;5045867;28;20291;-79
2022/08/20 04:56:47;;;;;;;14.73;10.97;;;;;;;;;;5049485;28;20792;-79
2022/08/20 04:59:14;;;;;;;15.47;11.00;;;;;;;;;;5054439;28;20203;-79
2022/08/20 05:01:41;;;;;;;15.17;10.90;;;;;;;;;;5046074;28;20286;-79
2022/08/20 05:04:08;;;;;;;15.07;10.73;;;;;;;;;;5049024;28;20238;-80
2022/08/20 05:06:35;;;;;;;15.53;11.30;;;;;;;;;;5052670;28;20286;-79
2022/08/20 05:09:03;;;;;;;14.20;10.57;;;;;;;;;;5049694;28;20203;-79
2022/08/20 05:11:32;;;;;;;18.33;10.90;;;;;;;;;;5051931;28;20301;-78
2022/08/20 05:13:59;;;;;;;16.40;10.70;;;;;;;;;;5050944;28;20210;-79
2022/08/20 05:16:26;;;;;;;14.50;9.87;;;;;;;;;;5048720;28;20215;-80
2022/08/20 05:18:54;;;;;;;13.63;10.50;;;;;;;;;;5052026;28;20199;-80
2022/08/20 05:21:21;;;;;;;15.57;10.87;;;;;;;;;;5049429;28;20420;-80
2022/08/20 05:23:49;;;;;;;14.33;10.43;;;;;;;;;;5047973;28;20223;-78
2022/08/20 05:26:18;;;;;;;14.27;10.53;;;;;;;;;;5050762;28;20345;-79
2022/08/20 05:28:47;;;;;;;13.17;10.23;;;;;;;;;;5051144;28;20204;-79
2022/08/20 05:31:15;;;;;;;15.00;11.23;;;;;;;;;;5045130;28;20231;-79
2022/08/20 05:33:42;;;;;;;12.63;10.10;;;;;;;;;;5048033;28;20195;-78
2022/08/20 05:36:09;;;;;;;13.50;10.43;;;;;;;;;;5041246;28;20297;-77
2022/08/20 05:38:37;;;;;;;14.80;10.73;;;;;;;;;;5046346;28;20245;-78
2022/08/20 05:41:05;;;;;;;12.33;9.27;;;;;;;;;;5044494;28;20626;-78
2022/08/20 05:43:32;;;;;;;13.83;9.83;;;;;;;;;;5050056;28;20199;-78
2022/08/20 05:46:01;;;;;;;12.23;9.33;;;;;;;;;;5046308;28;20224;-78
2022/08/20 05:48:28;;;;;;;14.03;9.83;;;;;;;;;;5043388;28;20688;-76
2022/08/20 05:50:56;;;;;;;11.93;9.40;;;;;;;;;;5046789;28;20226;-78
2022/08/20 05:53:25;;;;;;;11.83;9.07;;;;;;;;;;5051121;28;20656;-79
2022/08/20 05:55:53;;;;;;;17.10;8.80;;;;;;;;;;5045748;28;20207;-79
2022/08/20 05:58:21;;;;;;;11.67;8.87;;;;;;;;;;5044293;28;20234;-77
2022/08/20 06:00:49;;;;;;;12.90;9.33;;;;;;;;;;5045296;28;20288;-79
2022/08/20 06:06:03;;;;;;;10.53;8.93;;;;;;;;;;5047168;28;20202;-80
2022/08/20 06:08:31;;;;;;;12.17;9.10;;;;;;;;;;5050821;28;20200;-80
2022/08/20 06:10:58;;;;;;;12.17;9.77;;;;;;;;;;5049551;28;20246;-79
2022/08/20 06:13:25;;;;;;;15.73;10.33;;;;;;;;;;5048747;28;20211;-79
2022/08/20 06:15:52;;;;;;;13.57;10.23;;;;;;;;;;5047801;28;20203;-80
2022/08/20 06:18:21;;;;;;;13.13;9.73;;;;;;;;;;5046097;28;20304;-80
2022/08/20 06:20:49;;;;;;;15.53;8.80;;;;;;;;;;5051767;28;20238;-80
2022/08/20 06:23:16;;;;;;;11.47;8.83;;;;;;;;;;5044980;28;20207;-81
2022/08/20 06:25:43;;;;;;;11.23;8.70;;;;;;;;;;5047810;28;20224;-80
2022/08/20 06:28:11;;;;;;;10.93;7.67;;;;;;;;;;5051042;28;20287;-80
2022/08/20 06:30:39;;;;;;;10.43;7.60;;;;;;;;;;5049645;28;20246;-80
2022/08/20 06:33:06;;;;;;;8.37;6.90;;;;;;;;;;5051830;28;20207;-80
2022/08/20 06:35:36;;;;;;;8.43;6.80;;;;;;;;;;5046817;28;20231;-80
2022/08/20 06:38:04;;;;;;;9.37;6.30;;;;;;;;;;5046318;28;20253;-80
2022/08/20 06:40:32;;;;;;;6.87;5.97;;;;;;;;;;5048932;28;20225;-80
2022/08/20 06:43:00;;;;;;;7.90;5.90;;;;;;;;;;5045697;28;20202;-81
2022/08/20 06:45:29;;;;;;;7.53;5.63;;;;;;;;;;5050761;28;20266;-81
2022/08/20 06:47:57;;;;;;;7.90;6.13;;;;;;;;;;5051346;28;20552;-80
2022/08/20 06:50:25;;;;;;;8.57;6.27;;;;;;;;;;5056053;28;20318;-81
2022/08/20 06:52:54;;;;;;;6.00;5.17;;;;;;;;;;5051489;28;20616;-80
2022/08/20 06:55:22;;;;;;;8.07;5.60;;;;;;;;;;5050623;28;20307;-81
2022/08/20 06:57:56;;;;;;;5.97;4.90;;;;;;;;;;5050867;28;20298;-81
2022/08/20 07:00:24;;;;;;;7.83;5.10;;;;;;;;;;5049464;28;20249;-81
2022/08/20 07:02:51;;;;;;;5.87;5.23;;;;;;;;;;5051849;28;20305;-80
2022/08/20 07:05:18;;;;;;;7.93;5.80;;;;;;;;;;5051708;28;20456;-81
2022/08/20 07:07:48;;;;;;;5.87;5.27;;;;;;;;;;5052516;28;20231;-80
2022/08/20 07:10:17;;;;;;;6.03;5.00;;;;;;;;;;5057773;28;20218;-80
2022/08/20 07:12:45;;;;;;;6.13;5.47;;;;;;;;;;5059893;28;20283;-79
2022/08/20 07:15:13;;;;;;;7.13;4.30;;;;;;;;;;5058034;28;20740;-80
2022/08/20 07:17:40;;;;;;;6.50;4.70;;;;;;;;;;5052015;28;20261;-77
2022/08/20 07:20:09;;;;;;;4.67;4.10;;;;;;;;;;5056456;28;20745;-77
2022/08/20 07:22:36;;;;;;;4.67;3.70;;;;;;;;;;5054438;28;20223;-78
2022/08/20 07:25:04;;;;;;;4.37;3.70;;;;;;;;;;5056943;28;20203;-77
2022/08/20 07:27:33;;;;;;;5.38;3.72;;;;;;;;;;5051228;28;20207;-79
2022/08/20 07:32:46;;;;;;;5.23;3.20;;;;;;;;;;5051771;28;20354;-79
2022/08/20 07:35:14;;;;;;;3.30;3.00;;;;;;;;;;5052841;28;20266;-79
2022/08/20 07:37:42;;;;;;;3.23;2.80;;;;;;;;;;5056608;28;20203;-79
2022/08/20 07:40:12;;;;;;;3.63;2.60;;;;;;;;;;5053870;28;20238;-79
2022/08/20 07:42:40;;;;;;;4.37;3.30;;;;;;;;;;5053730;28;20777;-79
2022/08/20 07:45:09;;;;;;;3.73;2.90;;;;;;;;;;5052987;28;20213;-79
2022/08/20 07:47:38;;;;;;;3.83;3.37;;;;;;;;;;5053853;28;20223;-78
2022/08/20 07:50:06;;;;;;;4.33;3.30;;;;;;;;;;5052363;28;20738;-80
2022/08/20 07:52:34;;;;;;;4.40;3.67;;;;;;;;;;5047751;28;20226;-79
2022/08/20 07:55:01;;;;;;;4.73;3.93;;;;;;;;;;5054479;28;20727;-79
2022/08/20 07:57:28;;;;;;;7.43;4.50;;;;;;;;;;5049666;28;20203;-78
2022/08/20 07:59:59;;;;;;;5.77;4.50;;;;;;;;;;5050796;28;20725;-78
2022/08/20 08:02:26;;;;;;;6.63;4.47;;;;;;;;;;5048222;28;20237;-79
2022/08/20 08:04:53;;;;;;;5.00;4.37;;;;;;;;;;5047422;28;20294;-78
2022/08/20 08:07:21;;;;;;;11.30;4.80;;;;;;;;;;5048142;28;20231;-78
2022/08/20 08:09:49;;;;;;;4.47;4.03;;;;;;;;;;5049043;28;20231;-77
2022/08/20 08:12:16;;;;;;;4.20;3.80;;;;;;;;;;5049876;28;20295;-79
2022/08/20 08:14:45;;;;;;;6.10;4.17;;;;;;;;;;5050926;28;20195;-78
2022/08/20 08:17:15;;;;;;;5.83;3.80;;;;;;;;;;5050243;28;20206;-78
2022/08/20 08:19:43;;;;;;;4.50;3.83;;;;;;;;;;5052820;28;20254;-78
2022/08/20 08:22:13;;;;;;;4.33;3.80;;;;;;;;;;5052001;28;20219;-78
2022/08/20 08:24:40;;;;;;;4.20;3.80;;;;;;;;;;5052282;28;20203;-79
2022/08/20 08:27:08;;;;;;;4.93;3.50;;;;;;;;;;5050456;28;20226;-78
2022/08/20 08:29:35;;;;;;;5.60;4.00;;;;;;;;;;5053260;28;20207;-79
2022/08/20 08:32:02;;;;;;;5.67;4.07;;;;;;;;;;5049855;28;20238;-78
2022/08/20 08:34:31;;;;;;;3.90;3.37;;;;;;;;;;5054636;28;20238;-79
2022/08/20 08:37:01;;;;;;;6.83;4.00;;;;;;;;;;5051678;28;20670;-78
2022/08/20 08:39:29;;;;;;;4.83;4.13;;;;;;;;;;5050911;28;20289;-78
2022/08/20 08:41:57;;;;;;;5.87;4.43;;;;;;;;;;5049373;28;20229;-79
2022/08/20 08:44:26;;;;;;;5.30;4.17;;;;;;;;;;5051558;28;20207;-78
2022/08/20 08:46:56;;;;;;;5.93;4.57;;;;;;;;;;5055420;28;20669;-79
2022/08/20 08:49:25;;;;;;;7.27;5.43;;;;;;;;;;5048492;28;20278;-79
2022/08/20 08:51:55;;;;;;;8.50;5.97;;;;;;;;;;5053490;28;20254;-78
2022/08/20 08:54:24;;;;;;;7.60;5.90;;;;;;;;;;5049838;28;20809;-77
2022/08/20 08:56:52;;;;;;;7.07;5.90;;;;;;;;;;5051864;28;20766;-77
2022/08/20 08:59:21;;;;;;;7.73;5.57;;;;;;;;;;5051550;28;20207;-79
2022/08/20 09:01:49;;;;;;;6.50;5.40;;;;;;;;;;5053633;28;20231;-78
2022/08/20 09:04:17;;;;;;;5.10;4.13;;;;;;;;;;5051559;28;20222;-78
2022/08/20 09:06:46;;;;;;;7.37;4.27;;;;;;;;;;5054683;28;20239;-79
2022/08/20 09:09:18;;;;;;;3.83;3.33;;;;;;;;;;5051038;28;20215;-79
2022/08/20 09:11:47;;;;;;;3.13;2.60;;;;;;;;;;5054161;28;20233;-79
2022/08/20 09:14:14;;;;;;;3.07;2.70;;;;;;;;;;5053506;28;20204;-77
2022/08/20 09:16:41;;;;;;;3.10;2.23;;;;;;;;;;5050188;28;20230;-78
2022/08/20 09:19:08;;;;;;;3.13;2.20;;;;;;;;;;5050544;28;20759;-78
2022/08/20 09:21:36;;;;;;;2.30;2.07;;;;;;;;;;5054080;28;20313;-78
2022/08/20 09:24:03;;;;;;;1.70;1.60;;;;;;;;;;5048891;28;20261;-79
2022/08/20 09:26:32;;;;;;;3.00;1.73;;;;;;;;;;5051268;28;20674;-78
2022/08/20 09:28:59;;;;;;;1.80;1.43;;;;;;;;;;5050664;28;20302;-79
2022/08/20 09:31:26;;;;;;;1.50;1.10;;;;;;;;;;5045207;28;20266;-79
2022/08/20 09:36:57;;;;;;;1.70;1.03;;;;;;;;;;5052798;28;20185;-78
2022/08/20 09:39:24;;;;;;;1.47;1.27;;;;;;;;;;5052270;28;20243;-78
2022/08/20 09:41:52;;;;;;;1.47;1.27;;;;;;;;;;5050468;28;20265;-77
2022/08/20 09:44:19;;;;;;;2.70;1.70;;;;;;;;;;5052453;28;20299;-79
2022/08/20 09:46:47;;;;;;;2.93;2.03;;;;;;;;;;5054942;28;20222;-79
2022/08/20 09:49:14;;;;;;;3.27;2.30;;;;;;;;;;5047543;28;20271;-79
2022/08/20 09:51:41;;;;;;;4.03;2.53;;;;;;;;;;5047048;28;20265;-78
2022/08/20 09:54:08;;;;;;;7.90;3.30;;;;;;;;;;5049768;28;20207;-78
2022/08/20 09:56:35;;;;;;;4.53;3.73;;;;;;;;;;5052989;28;20225;-77
2022/08/20 09:59:04;;;;;;;10.23;4.33;;;;;;;;;;5043618;28;20203;-78
2022/08/20 10:01:32;;;;;;;8.47;5.73;;;;;;;;;;5044869;28;20357;-78
2022/08/20 10:03:59;;;;;;;12.50;8.30;;;;;;;;;;5045812;28;20222;-79
2022/08/20 10:06:26;;;;;;;13.63;8.90;;;;;;;;;;5043753;28;20298;-77
2022/08/20 10:08:53;;;;;;;15.53;9.33;;;;;;;;;;5042022;28;20237;-80
2022/08/20 10:11:20;;;;;;;12.30;8.97;;;;;;;;;;5042585;28;20229;-79
2022/08/20 10:13:47;;;;;;;14.30;9.87;;;;;;;;;;5046652;28;20226;-78
2022/08/20 10:16:16;;;;;;;14.90;10.10;;;;;;;;;;5050142;28;20199;-80
2022/08/20 10:18:43;;;;;;;16.67;10.50;;;;;;;;;;5044561;28;20226;-78
2022/08/20 10:21:11;;;;;;;15.63;10.37;;;;;;;;;;5045508;28;20218;-80
2022/08/20 10:23:38;;;;;;;12.60;9.33;;;;;;;;;;5048210;28;20230;-79
2022/08/20 10:26:06;;;;;;;17.50;9.47;;;;;;;;;;5044900;28;20290;-79
2022/08/20 10:28:33;;;;;;;13.13;8.80;;;;;;;;;;5047810;28;20219;-81
2022/08/20 10:31:00;;;;;;;11.53;8.00;;;;;;;;;;5046702;28;20894;-80
2022/08/20 10:33:29;;;;;;;10.97;8.00;;;;;;;;;;5043672;28;20231;-78
2022/08/20 10:35:56;;;;;;;16.33;9.20;;;;;;;;;;5045777;28;20653;-79
2022/08/20 10:38:23;;;;;;;13.40;8.20;;;;;;;;;;5045554;28;20214;-79
2022/08/20 10:40:50;;;;;;;13.43;8.60;;;;;;;;;;5046405;28;20715;-79
2022/08/20 10:43:17;;;;;;;10.23;7.70;;;;;;;;;;5039475;28;20713;-78
2022/08/20 10:45:45;;;;;;;10.33;7.70;;;;;;;;;;5047819;28;20210;-78
2022/08/20 10:48:12;;;;;;;10.70;8.13;;;;;;;;;;5044194;28;20226;-80
2022/08/20 10:50:40;;;;;;;9.43;7.23;;;;;;;;;;5045561;28;20227;-78
2022/08/20 10:53:08;;;;;;;7.73;6.30;;;;;;;;;;5046065;28;20196;-78
2022/08/20 10:55:35;;;;;;;9.50;6.73;;;;;;;;;;5045393;28;20560;-79
2022/08/20 10:58:05;;;;;;;7.70;6.03;;;;;;;;;;5041594;28;20244;-79
2022/08/20 11:00:32;;;;;;;4.53;3.87;;;;;;;;;;5045728;28;20240;-79
2022/08/20 11:02:59;;;;;;;5.70;4.00;;;;;;;;;;5037812;28;20278;-80
2022/08/20 11:05:27;;;;;;;6.73;4.50;;;;;;;;;;5041532;28;20299;-79
2022/08/20 11:07:56;;;;;;;5.50;4.60;;;;;;;;;;5043368;28;20721;-78
2022/08/20 11:10:24;;;;;;;7.37;5.47;;;;;;;;;;5043399;28;20234;-78
2022/08/20 11:12:51;;;;;;;7.20;5.30;;;;;;;;;;5045710;28;20609;-78
2022/08/20 11:15:19;;;;;;;5.70;4.20;;;;;;;;;;5042764;28;20286;-78
2022/08/20 11:17:46;;;;;;;6.07;4.20;;;;;;;;;;5045781;28;20253;-78
2022/08/20 11:20:14;;;;;;;6.43;4.83;;;;;;;;;;5044612;28;20233;-78
2022/08/20 11:22:42;;;;;;;5.47;3.87;;;;;;;;;;5049523;28;20213;-79
2022/08/20 11:25:11;;;;;;;5.17;4.10;;;;;;;;;;5040894;28;20282;-78
2022/08/20 11:27:41;;;;;;;4.33;3.90;;;;;;;;;;5040416;28;20289;-77
2022/08/20 11:30:10;;;;;;;6.40;4.00;;;;;;;;;;5039665;28;20310;-77
2022/08/20 11:32:37;;;;;;;4.80;3.67;;;;;;;;;;5042750;28;20259;-77
2022/08/20 11:35:05;;;;;;;4.63;3.77;;;;;;;;;;5040955;28;20211;-77
2022/08/20 11:37:33;;;;;;;5.73;4.50;;;;;;;;;;5042451;28;20889;-79
2022/08/20 11:40:00;;;;;;;7.20;3.70;;;;;;;;;;5042949;28;20348;-78
2022/08/20 11:42:29;;;;;;;3.77;3.33;;;;;;;;;;5045019;28;20219;-78
2022/08/20 11:44:56;;;;;;;4.17;3.43;;;;;;;;;;5046168;28;20208;-77
2022/08/20 11:47:25;;;;;;;6.00;3.43;;;;;;;;;;5047624;28;20204;-77
2022/08/20 11:49:57;;;;;;;3.70;2.90;;;;;;;;;;5038686;28;20683;-78
2022/08/20 11:52:24;;;;;;;4.87;3.63;;;;;;;;;;5035525;28;20703;-78
2022/08/20 11:54:51;;;;;;;5.20;4.10;;;;;;;;;;5045243;28;20708;-77
2022/08/20 11:57:20;;;;;;;5.10;3.77;;;;;;;;;;5048876;28;20549;-77
2022/08/20 11:59:50;;;;;;;4.83;3.97;;;;;;;;;;5045583;28;20290;-77
2022/08/20 12:02:20;;;;;;;4.80;3.90;;;;;;;;;;5046709;28;20661;-77
2022/08/20 12:04:48;;;;;;;6.10;4.57;;;;;;;;;;5049843;28;20250;-78
2022/08/20 12:07:16;;;;;;;7.00;4.43;;;;;;;;;;5047766;28;20210;-77
2022/08/20 12:09:44;;;;;;;6.57;5.20;;;;;;;;;;5047602;28;20290;-78
2022/08/20 12:12:11;;;;;;;7.97;5.10;;;;;;;;;;5044757;28;20223;-79
2022/08/20 12:14:38;;;;;;;5.73;4.93;;;;;;;;;;5048673;28;20298;-77
2022/08/20 12:17:10;;;;;;;5.77;4.40;;;;;;;;;;5046062;28;20207;-78
2022/08/20 12:19:38;;;;;;;4.80;3.90;;;;;;;;;;5044874;28;20203;-78
2022/08/20 12:22:05;;;;;;;4.73;4.03;;;;;;;;;;5048093;28;20279;-78
2022/08/20 12:24:32;;;;;;;6.63;4.70;;;;;;;;;;5048036;28;20234;-77
2022/08/20 12:27:09;;;;;;;10.80;5.17;;;;;;;;;;5045901;28;20285;-77
2022/08/20 12:29:37;;;;;;;7.40;4.93;;;;;;;;;;5049194;28;20206;-76
2022/08/20 12:32:05;;;;;;;8.30;4.80;;;;;;;;;;5045906;28;20290;-77
2022/08/20 12:34:34;;;;;;;7.70;4.93;;;;;;;;;;5045849;28;20211;-79
2022/08/20 12:37:03;;;;;;;6.83;4.50;;;;;;;;;;5045910;28;20215;-77
2022/08/20 12:39:32;;;;;;;7.03;4.53;;;;;;;;;;5045536;28;20294;-78
2022/08/20 12:42:01;;;;;;;7.43;5.13;;;;;;;;;;5051178;28;20662;-78
2022/08/20 12:44:28;;;;;;;7.33;4.50;;;;;;;;;;5047210;28;20230;-80
2022/08/20 12:47:05;;;;;;;5.07;4.07;;;;;;;;;;5045428;28;20274;-78
2022/08/20 12:49:34;;;;;;;4.43;3.77;;;;;;;;;;5043712;28;20198;-79
2022/08/20 12:52:01;;;;;;;5.53;3.97;;;;;;;;;;5046488;28;20233;-78
2022/08/20 12:54:29;;;;;;;5.20;3.77;;;;;;;;;;5042649;28;20211;-78
2022/08/20 12:56:56;;;;;;;4.57;3.67;;;;;;;;;;5046217;28;20226;-78
2022/08/20 12:59:24;;;;;;;6.00;4.33;;;;;;;;;;5043888;28;20594;-76
2022/08/20 13:01:51;;;;;;;4.33;3.93;;;;;;;;;;5056484;28;20215;-78
2022/08/20 13:04:18;;;;;;;7.33;4.30;;;;;;;;;;5047062;28;20220;-77
2022/08/20 13:06:47;;;;;;;4.10;3.60;;;;;;;;;;5048027;28;20231;-78
2022/08/20 13:09:15;;;;;;;7.17;4.10;;;;;;;;;;5045411;28;20208;-77
2022/08/20 13:11:42;;;;;;;4.20;3.70;;;;;;;;;;5043139;28;20230;-77
2022/08/20 13:14:09;;;;;;;6.67;4.27;;;;;;;;;;5044576;28;20195;-79
2022/08/20 13:16:37;;;;;;;5.87;4.63;;;;;;;;;;5042097;28;20286;-79
2022/08/20 13:19:04;;;;;;;6.57;5.27;;;;;;;;;;5044635;28;20679;-77
2022/08/20 13:21:31;;;;;;;7.13;5.57;;;;;;;;;;5045462;28;20804;-76
2022/08/20 13:24:00;;;;;;;9.23;6.27;;;;;;;;;;5043184;28;20223;-77
2022/08/20 13:26:27;;;;;;;8.03;6.10;;;;;;;;;;5043442;28;20208;-77
2022/08/20 13:28:54;;;;;;;10.50;6.47;;;;;;;;;;5046334;28;20199;-77
2022/08/20 13:31:22;;;;;;;10.33;6.10;;;;;;;;;;5049624;28;20233;-77
2022/08/20 13:33:49;;;;;;;8.47;6.63;;;;;;;;;;5051288;28;20203;-77
2022/08/20 13:36:17;;;;;;;7.70;6.63;;;;;;;;;;5051806;28;20242;-78
2022/08/20 13:38:44;;;;;;;13.87;7.07;;;;;;;;;;5055008;28;20254;-78
2022/08/20 13:41:13;;;;;;;9.33;6.37;;;;;;;;;;5049045;28;20215;-78
2022/08/20 13:43:40;;;;;;;8.60;6.23;;;;;;;;;;5051601;28;20226;-78
2022/08/20 13:46:07;;;;;;;7.67;5.73;;;;;;;;;;5041690;28;20294;-77
2022/08/20 13:48:35;;;;;;;6.57;5.23;;;;;;;;;;5049640;28;20203;-78
2022/08/20 13:51:02;;;;;;;8.43;5.50;;;;;;;;;;5048373;28;20502;-79
2022/08/20 13:53:29;;;;;;;9.93;5.57;;;;;;;;;;5038109;28;20212;-78
2022/08/20 13:55:57;;;;;;;8.43;5.87;;;;;;;;;;5044642;28;20285;-78
2022/08/20 13:58:26;;;;;;;8.50;6.20;;;;;;;;;;5042989;28;20207;-77
2022/08/20 14:00:53;;;;;;;7.43;6.60;;;;;;;;;;5041458;28;20861;-78
2022/08/20 14:03:20;;;;;;;8.97;7.50;;;;;;;;;;5040152;28;20562;-78
2022/08/20 14:05:48;;;;;;;10.70;7.93;;;;;;;;;;5040819;28;20268;-78
2022/08/20 14:08:17;;;;;;;19.67;8.37;;;;;;;;;;5039637;28;20732;-77
2022/08/20 14:10:45;;;;;;;10.93;7.73;;;;;;;;;;5041778;28;20246;-76
2022/08/20 14:13:12;;;;;;;9.93;8.33;;;;;;;;;;5043007;28;20195;-78
2022/08/20 14:15:41;;;;;;;12.17;8.77;;;;;;;;;;5044184;28;20221;-78
2022/08/20 14:18:08;;;;;;;16.83;8.97;;;;;;;;;;5039496;28;20205;-78
2022/08/20 14:20:35;;;;;;;14.53;8.47;;;;;;;;;;5039948;28;20415;-76
2022/08/20 14:23:03;;;;;;;11.10;8.37;;;;;;;;;;5040230;28;20800;-78
2022/08/20 14:25:30;;;;;;;11.87;8.67;;;;;;;;;;5044717;28;20214;-78
2022/08/20 14:27:58;;;;;;;10.90;8.03;;;;;;;;;;5040295;28;20199;-78
2022/08/20 14:30:26;;;;;;;10.00;7.93;;;;;;;;;;5045302;28;20640;-79
2022/08/20 14:32:55;;;;;;;10.47;7.80;;;;;;;;;;5041062;28;20290;-78
2022/08/20 14:35:22;;;;;;;12.77;7.90;;;;;;;;;;5041868;28;20279;-79
2022/08/20 14:37:51;;;;;;;8.63;6.97;;;;;;;;;;5040635;28;20203;-79
2022/08/20 14:40:19;;;;;;;9.17;6.90;;;;;;;;;;5041459;28;20231;-78
2022/08/20 14:42:48;;;;;;;8.73;6.80;;;;;;;;;;5043202;28;20200;-79
2022/08/20 14:45:16;;;;;;;8.07;6.30;;;;;;;;;;5043380;28;20677;-80
2022/08/20 14:47:44;;;;;;;8.83;6.60;;;;;;;;;;5046684;28;20602;-78